Terminal Aerodrome Forecast
Issued by NWS Duluth, MN

Home | Current Version | Previous Version | Text Only | Print | Product List | Glossary On
Versions: 1 2 3 4 5 6 7 8 9 10 11 12 13 14 15 16 17 18 19 20 21 22 23 24 25 26 27
000
FTUS43 KDLH 260100 AAA
TAFDLH
TAF AMD
KDLH 260131Z 2602/2624 16006KT P6SM OVC010
     FM260300 VRB03KT 5SM BR SCT015 BKN035
      TEMPO 2605/2609 1SM BR BKN007
     FM261000 28006KT 6SM BR FEW010
     FM261300 27009KT P6SM SKC
     FM262100 23012KT P6SM SCT100=

USA.gov is the U.S. government's official web portal to all federal, state and local government web resources and services.